sensor_id;sensor_type;location;lat;lon;timestamp;pressure;altitude;pressure_sealevel;temperature;humidity
35248;BME280;21380;52.194;20.520;2023-06-22T00:00:47;100564.63;;;23.13;74.40
35248;BME280;21380;52.194;20.520;2023-06-22T00:03:32;100560.28;;;23.12;74.39
35248;BME280;21380;52.194;20.520;2023-06-22T00:05:57;100563.78;;;23.13;74.15
35248;BME280;21380;52.194;20.520;2023-06-22T00:08:23;100564.63;;;23.13;74.40
35248;BME280;21380;52.194;20.520;2023-06-22T00:10:52;100560.25;;;23.14;74.46
35248;BME280;21380;52.194;20.520;2023-06-22T00:13:17;100562.91;;;23.12;74.45
35248;BME280;21380;52.194;20.520;2023-06-22T00:15:43;100557.66;;;23.12;74.54
35248;BME280;21380;52.194;20.520;2023-06-22T00:18:09;100552.38;;;23.12;74.59
35248;BME280;21380;52.194;20.520;2023-06-22T00:20:35;100556.75;;;23.12;74.64
35248;BME280;21380;52.194;20.520;2023-06-22T00:23:05;100561.16;;;23.11;74.50
35248;BME280;21380;52.194;20.520;2023-06-22T00:25:37;100560.28;;;23.12;74.57
35248;BME280;21380;52.194;20.520;2023-06-22T00:28:05;100554.13;;;23.12;74.38
35248;BME280;21380;52.194;20.520;2023-06-22T00:30:31;100557.63;;;23.11;74.29
35248;BME280;21380;52.194;20.520;2023-06-22T00:32:57;100551.50;;;23.10;74.41
35248;BME280;21380;52.194;20.520;2023-06-22T00:35:24;100546.25;;;23.10;74.54
35248;BME280;21380;52.194;20.520;2023-06-22T00:37:58;100548.88;;;23.10;74.24
35248;BME280;21380;52.194;20.520;2023-06-22T00:40:27;100541.88;;;23.09;74.40
35248;BME280;21380;52.194;20.520;2023-06-22T00:42:53;100539.25;;;23.09;74.42
35248;BME280;21380;52.194;20.520;2023-06-22T00:45:19;100539.25;;;23.09;74.08
35248;BME280;21380;52.194;20.520;2023-06-22T00:47:44;100526.09;;;23.09;74.05
35248;BME280;21380;52.194;20.520;2023-06-22T00:50:10;100519.97;;;23.09;74.46
35248;BME280;21380;52.194;20.520;2023-06-22T00:52:43;100521.72;;;23.10;74.06
35248;BME280;21380;52.194;20.520;2023-06-22T00:55:10;100519.06;;;23.08;74.41
35248;BME280;21380;52.194;20.520;2023-06-22T00:57:35;100515.59;;;23.08;74.28
35248;BME280;21380;52.194;20.520;2023-06-22T01:00:03;100519.06;;;23.08;74.01
35248;BME280;21380;52.194;20.520;2023-06-22T01:02:31;100525.22;;;23.07;74.22
35248;BME280;21380;52.194;20.520;2023-06-22T01:04:57;100527.84;;;23.07;74.15
35248;BME280;21380;52.194;20.520;2023-06-22T01:07:35;100523.50;;;23.06;73.78
35248;BME280;21380;52.194;20.520;2023-06-22T01:12:34;100511.19;;;23.07;73.82
35248;BME280;21380;52.194;20.520;2023-06-22T01:18:03;100525.25;;;23.06;74.15
35248;BME280;21380;52.194;20.520;2023-06-22T01:20:29;100522.63;;;23.04;74.11
35248;BME280;21380;52.194;20.520;2023-06-22T01:30:53;100535.75;;;23.06;73.95
35248;BME280;21380;52.194;20.520;2023-06-22T01:33:29;100533.16;;;23.04;74.17
35248;BME280;21380;52.194;20.520;2023-06-22T01:35:57;100549.81;;;23.03;74.00
35248;BME280;21380;52.194;20.520;2023-06-22T01:38:23;100549.81;;;23.03;74.06
35248;BME280;21380;52.194;20.520;2023-06-22T01:40:49;100554.19;;;23.04;74.30
35248;BME280;21380;52.194;20.520;2023-06-22T01:43:15;100557.72;;;23.03;73.95
35248;BME280;21380;52.194;20.520;2023-06-22T01:45:41;100566.50;;;23.04;73.98
35248;BME280;21380;52.194;20.520;2023-06-22T01:48:07;100567.38;;;23.03;74.18
35248;BME280;21380;52.194;20.520;2023-06-22T01:50:33;100568.25;;;23.03;74.49
35248;BME280;21380;52.194;20.520;2023-06-22T01:52:59;100563.84;;;23.02;74.45
35248;BME280;21380;52.194;20.520;2023-06-22T01:55:25;100571.75;;;23.02;74.48
35248;BME280;21380;52.194;20.520;2023-06-22T01:57:50;100576.13;;;23.03;74.45
35248;BME280;21380;52.194;20.520;2023-06-22T02:00:18;100574.38;;;23.02;74.67
35248;BME280;21380;52.194;20.520;2023-06-22T02:05:41;100580.53;;;23.03;74.80
35248;BME280;21380;52.194;20.520;2023-06-22T02:08:09;100581.41;;;23.02;74.90
35248;BME280;21380;52.194;20.520;2023-06-22T02:10:36;100575.28;;;23.03;75.07
35248;BME280;21380;52.194;20.520;2023-06-22T02:13:05;100579.63;;;23.02;75.07
35248;BME280;21380;52.194;20.520;2023-06-22T02:15:31;100591.94;;;23.02;75.24
35248;BME280;21380;52.194;20.520;2023-06-22T02:17:57;100592.78;;;23.02;75.09
35248;BME280;21380;52.194;20.520;2023-06-22T02:20:23;100595.44;;;23.02;75.36
35248;BME280;21380;52.194;20.520;2023-06-22T02:22:49;100602.47;;;23.02;75.49
35248;BME280;21380;52.194;20.520;2023-06-22T02:25:15;100604.22;;;23.03;75.35
35248;BME280;21380;52.194;20.520;2023-06-22T02:27:41;100602.47;;;23.02;75.67
35248;BME280;21380;52.194;20.520;2023-06-22T02:30:07;100601.59;;;23.01;75.88
35248;BME280;21380;52.194;20.520;2023-06-22T02:32:33;100608.56;;;23.02;76.13
35248;BME280;21380;52.194;20.520;2023-06-22T02:34:59;100620.00;;;23.03;76.33
35248;BME280;21380;52.194;20.520;2023-06-22T02:37:25;100618.25;;;23.02;76.39
35248;BME280;21380;52.194;20.520;2023-06-22T02:39:55;100627.00;;;23.02;76.48
35248;BME280;21380;52.194;20.520;2023-06-22T02:42:21;100633.16;;;23.01;76.78
35248;BME280;21380;52.194;20.520;2023-06-22T02:44:47;100634.03;;;23.02;76.55
35248;BME280;21380;52.194;20.520;2023-06-22T02:47:13;100637.53;;;23.02;76.71
35248;BME280;21380;52.194;20.520;2023-06-22T02:49:39;100634.88;;;23.02;76.74
35248;BME280;21380;52.194;20.520;2023-06-22T02:52:04;100627.00;;;23.02;76.72
35248;BME280;21380;52.194;20.520;2023-06-22T02:54:30;100629.63;;;23.02;76.90
35248;BME280;21380;52.194;20.520;2023-06-22T02:56:56;100634.88;;;23.02;76.95
35248;BME280;21380;52.194;20.520;2023-06-22T02:59:22;100632.25;;;23.02;76.84
35248;BME280;21380;52.194;20.520;2023-06-22T03:01:50;100628.75;;;23.03;76.95
35248;BME280;21380;52.194;20.520;2023-06-22T03:07:38;100641.03;;;23.03;77.07
35248;BME280;21380;52.194;20.520;2023-06-22T03:10:04;100640.16;;;23.02;77.00
35248;BME280;21380;52.194;20.520;2023-06-22T03:12:30;100640.16;;;23.02;77.05
35248;BME280;21380;52.194;20.520;2023-06-22T03:14:55;100632.25;;;23.02;77.24
35248;BME280;21380;52.194;20.520;2023-06-22T03:17:21;100644.56;;;23.02;76.99
35248;BME280;21380;52.194;20.520;2023-06-22T03:19:47;100644.56;;;23.02;77.21
35248;BME280;21380;52.194;20.520;2023-06-22T03:22:13;100647.19;;;23.02;76.99
35248;BME280;21380;52.194;20.520;2023-06-22T03:24:40;100643.66;;;23.03;77.23
35248;BME280;21380;52.194;20.520;2023-06-22T03:27:06;100652.44;;;23.03;77.04
35248;BME280;21380;52.194;20.520;2023-06-22T03:29:32;100650.66;;;23.02;77.29
35248;BME280;21380;52.194;20.520;2023-06-22T03:31:57;100655.94;;;23.02;77.35
35248;BME280;21380;52.194;20.520;2023-06-22T03:34:24;100664.72;;;23.03;77.12
35248;BME280;21380;52.194;20.520;2023-06-22T03:36:49;100667.34;;;23.03;77.17
35248;BME280;21380;52.194;20.520;2023-06-22T03:39:15;100669.09;;;23.02;77.53
35248;BME280;21380;52.194;20.520;2023-06-22T03:41:41;100670.84;;;23.03;77.35
35248;BME280;21380;52.194;20.520;2023-06-22T03:44:06;100676.09;;;23.03;77.20
35248;BME280;21380;52.194;20.520;2023-06-22T03:46:36;100672.59;;;23.04;77.49
35248;BME280;21380;52.194;20.520;2023-06-22T03:49:01;100669.19;;;22.91;77.76
35248;BME280;21380;52.194;20.520;2023-06-22T03:51:28;100695.38;;;23.05;77.48
35248;BME280;21380;52.194;20.520;2023-06-22T03:53:54;100695.38;;;23.05;77.63
35248;BME280;21380;52.194;20.520;2023-06-22T03:56:20;100700.66;;;23.05;77.98
35248;BME280;21380;52.194;20.520;2023-06-22T03:58:46;100698.88;;;23.06;78.27
35248;BME280;21380;52.194;20.520;2023-06-22T04:01:12;100698.88;;;23.06;78.17
35248;BME280;21380;52.194;20.520;2023-06-22T04:03:38;100702.41;;;23.06;78.49
35248;BME280;21380;52.194;20.520;2023-06-22T04:06:04;100697.16;;;23.06;78.60
35248;BME280;21380;52.194;20.520;2023-06-22T04:08:30;100705.91;;;23.07;78.72
35248;BME280;21380;52.194;20.520;2023-06-22T04:10:55;100710.28;;;23.08;78.83
35248;BME280;21380;52.194;20.520;2023-06-22T04:13:22;100711.16;;;23.08;78.96
35248;BME280;21380;52.194;20.520;2023-06-22T04:15:47;100713.78;;;23.08;78.93
35248;BME280;21380;52.194;20.520;2023-06-22T04:18:14;100712.91;;;23.09;79.06
35248;BME280;21380;52.194;20.520;2023-06-22T04:20:39;100711.16;;;23.08;79.11
35248;BME280;21380;52.194;20.520;2023-06-22T04:23:05;100705.00;;;23.09;79.11
35248;BME280;21380;52.194;20.520;2023-06-22T04:25:31;100711.16;;;23.10;79.22
35248;BME280;21380;52.194;20.520;2023-06-22T04:27:57;100711.16;;;23.10;78.96
35248;BME280;21380;52.194;20.520;2023-06-22T04:30:23;100718.13;;;23.11;79.32
35248;BME280;21380;52.194;20.520;2023-06-22T04:32:48;100710.25;;;23.11;79.33
35248;BME280;21380;52.194;20.520;2023-06-22T04:35:21;100704.09;;;23.12;79.23
35248;BME280;21380;52.194;20.520;2023-06-22T04:37:48;100706.75;;;23.12;79.35
35248;BME280;21380;52.194;20.520;2023-06-22T04:40:15;100702.38;;;23.12;79.53
35248;BME280;21380;52.194;20.520;2023-06-22T04:42:41;100699.75;;;23.12;79.60
35248;BME280;21380;52.194;20.520;2023-06-22T04:45:17;100703.22;;;23.13;79.69
35248;BME280;21380;52.194;20.520;2023-06-22T04:47:43;100699.72;;;23.14;79.40
35248;BME280;21380;52.194;20.520;2023-06-22T04:50:11;100690.06;;;23.14;79.67
35248;BME280;21380;52.194;20.520;2023-06-22T04:52:37;100692.69;;;23.14;79.63
35248;BME280;21380;52.194;20.520;2023-06-22T04:55:03;100690.94;;;23.15;79.65
35248;BME280;21380;52.194;20.520;2023-06-22T04:57:29;100690.94;;;23.15;79.91
35248;BME280;21380;52.194;20.520;2023-06-22T05:00:00;100697.97;;;23.16;79.65
35248;BME280;21380;52.194;20.520;2023-06-22T05:02:52;100713.75;;;23.18;80.02
35248;BME280;21380;52.194;20.520;2023-06-22T05:05:18;100713.75;;;23.18;80.24
35248;BME280;21380;52.194;20.520;2023-06-22T05:07:49;100719.03;;;23.18;80.47
35248;BME280;21380;52.194;20.520;2023-06-22T05:10:16;100716.41;;;23.18;80.56
35248;BME280;21380;52.194;20.520;2023-06-22T05:12:41;100712.88;;;23.19;79.92
35248;BME280;21380;52.194;20.520;2023-06-22T05:15:07;100719.00;;;23.19;80.38
35248;BME280;21380;52.194;20.520;2023-06-22T05:17:34;100723.38;;;23.20;80.63
35248;BME280;21380;52.194;20.520;2023-06-22T05:20:00;100729.50;;;23.21;80.27
35248;BME280;21380;52.194;20.520;2023-06-22T05:22:26;100719.88;;;23.21;80.42
35248;BME280;21380;52.194;20.520;2023-06-22T05:24:51;100722.50;;;23.23;80.37
35248;BME280;21380;52.194;20.520;2023-06-22T05:27:17;100727.75;;;23.23;80.56
35248;BME280;21380;52.194;20.520;2023-06-22T05:29:43;100729.50;;;23.24;80.36
35248;BME280;21380;52.194;20.520;2023-06-22T05:32:09;100730.34;;;23.26;80.49
35248;BME280;21380;52.194;20.520;2023-06-22T05:34:34;100725.97;;;23.26;80.35
35248;BME280;21380;52.194;20.520;2023-06-22T05:37:01;100729.47;;;23.27;80.69
35248;BME280;21380;52.194;20.520;2023-06-22T05:39:27;100729.44;;;23.28;80.52
35248;BME280;21380;52.194;20.520;2023-06-22T05:41:52;100735.59;;;23.29;80.63
35248;BME280;21380;52.194;20.520;2023-06-22T05:44:18;100737.38;;;23.30;80.51
35248;BME280;21380;52.194;20.520;2023-06-22T05:46:44;100747.91;;;23.30;80.38
35248;BME280;21380;52.194;20.520;2023-06-22T05:49:11;100742.63;;;23.30;80.17
35248;BME280;21380;52.194;20.520;2023-06-22T05:51:37;100737.38;;;23.30;80.34
35248;BME280;21380;52.194;20.520;2023-06-22T05:54:03;100745.25;;;23.30;80.49
35248;BME280;21380;52.194;20.520;2023-06-22T05:56:29;100757.50;;;23.31;80.40
35248;BME280;21380;52.194;20.520;2023-06-22T05:58:55;100749.63;;;23.31;79.80
35248;BME280;21380;52.194;20.520;2023-06-22T06:01:21;100750.53;;;23.30;80.48
35248;BME280;21380;52.194;20.520;2023-06-22T06:03:46;100760.16;;;23.29;80.36
35248;BME280;21380;52.194;20.520;2023-06-22T06:06:12;100759.31;;;23.29;80.43
35248;BME280;21380;52.194;20.520;2023-06-22T06:08:38;100761.06;;;23.30;80.20
35248;BME280;21380;52.194;20.520;2023-06-22T06:11:04;100759.31;;;23.29;80.41
35248;BME280;21380;52.194;20.520;2023-06-22T06:13:30;100751.41;;;23.29;80.07
35248;BME280;21380;52.194;20.520;2023-06-22T06:15:56;100756.66;;;23.29;80.04
35248;BME280;21380;52.194;20.520;2023-06-22T06:18:22;100759.31;;;23.29;80.03
35248;BME280;21380;52.194;20.520;2023-06-22T06:20:48;100756.66;;;23.29;80.17
35248;BME280;21380;52.194;20.520;2023-06-22T06:23:13;100754.91;;;23.29;79.92
35248;BME280;21380;52.194;20.520;2023-06-22T06:25:39;100751.41;;;23.29;79.89
35248;BME280;21380;52.194;20.520;2023-06-22T06:28:04;100754.03;;;23.29;80.78
35248;BME280;21380;52.194;20.520;2023-06-22T06:30:30;100754.03;;;23.29;80.79
35248;BME280;21380;52.194;20.520;2023-06-22T06:32:56;100751.41;;;23.29;81.81
35248;BME280;21380;52.194;20.520;2023-06-22T06:35:22;100753.16;;;23.30;81.22
35248;BME280;21380;52.194;20.520;2023-06-22T06:37:48;100757.53;;;23.29;80.90
35248;BME280;21380;52.194;20.520;2023-06-22T06:40:15;100750.53;;;23.30;80.90
35248;BME280;21380;52.194;20.520;2023-06-22T06:42:42;100739.09;;;23.29;80.89
35248;BME280;21380;52.194;20.520;2023-06-22T06:45:17;100753.16;;;23.30;80.99
35248;BME280;21380;52.194;20.520;2023-06-22T06:47:43;100745.25;;;23.30;80.59
35248;BME280;21380;52.194;20.520;2023-06-22T06:50:09;100749.63;;;23.29;80.70
35248;BME280;21380;52.194;20.520;2023-06-22T06:52:35;100749.63;;;23.29;80.17
35248;BME280;21380;52.194;20.520;2023-06-22T06:55:00;100744.38;;;23.29;80.40
35248;BME280;21380;52.194;20.520;2023-06-22T06:57:26;100747.91;;;23.25;80.24
35248;BME280;21380;52.194;20.520;2023-06-22T06:59:56;100758.59;;;22.97;87.82
35248;BME280;21380;52.194;20.520;2023-06-22T07:02:22;100753.31;;;22.94;90.17
35248;BME280;21380;52.194;20.520;2023-06-22T07:04:48;100754.13;;;23.09;88.51
35248;BME280;21380;52.194;20.520;2023-06-22T07:07:14;100754.13;;;23.17;87.79
35248;BME280;21380;52.194;20.520;2023-06-22T07:09:40;100754.09;;;23.21;86.29
35248;BME280;21380;52.194;20.520;2023-06-22T07:12:06;100757.56;;;23.25;85.57
35248;BME280;21380;52.194;20.520;2023-06-22T07:14:32;100755.78;;;23.27;84.81
35248;BME280;21380;52.194;20.520;2023-06-22T07:16:57;100761.03;;;23.28;84.48
35248;BME280;21380;52.194;20.520;2023-06-22T07:19:24;100757.53;;;23.29;83.53
35248;BME280;21380;52.194;20.520;2023-06-22T07:21:49;100767.19;;;23.30;83.20
35248;BME280;21380;52.194;20.520;2023-06-22T07:24:15;100761.91;;;23.30;82.64
35248;BME280;21380;52.194;20.520;2023-06-22T07:26:41;100774.19;;;23.31;81.93
35248;BME280;21380;52.194;20.520;2023-06-22T07:29:11;100766.28;;;23.31;82.25
35248;BME280;21380;52.194;20.520;2023-06-22T07:31:37;100768.03;;;23.31;82.14
35248;BME280;21380;52.194;20.520;2023-06-22T07:34:03;100771.56;;;23.31;81.54
35248;BME280;21380;52.194;20.520;2023-06-22T07:36:29;100771.56;;;23.31;81.68
35248;BME280;21380;52.194;20.520;2023-06-22T07:38:55;100782.09;;;23.31;81.36
35248;BME280;21380;52.194;20.520;2023-06-22T07:41:21;100779.47;;;23.31;80.92
35248;BME280;21380;52.194;20.520;2023-06-22T07:43:47;100773.31;;;23.31;80.78
35248;BME280;21380;52.194;20.520;2023-06-22T07:46:12;100785.59;;;23.32;80.54
35248;BME280;21380;52.194;20.520;2023-06-22T07:48:38;100770.66;;;23.31;80.62
35248;BME280;21380;52.194;20.520;2023-06-22T07:51:04;100781.19;;;23.31;80.31
35248;BME280;21380;52.194;20.520;2023-06-22T07:53:31;100776.84;;;23.30;80.02
35248;BME280;21380;52.194;20.520;2023-06-22T07:55:57;100776.81;;;23.31;79.94
35248;BME280;21380;52.194;20.520;2023-06-22T07:58:23;100770.66;;;23.31;79.86
35248;BME280;21380;52.194;20.520;2023-06-22T08:00:48;100768.94;;;23.30;79.62
35248;BME280;21380;52.194;20.520;2023-06-22T08:03:15;100779.47;;;23.31;79.49
35248;BME280;21380;52.194;20.520;2023-06-22T08:05:41;100768.03;;;23.31;79.27
35248;BME280;21380;52.194;20.520;2023-06-22T08:08:06;100767.19;;;23.30;79.09
35248;BME280;21380;52.194;20.520;2023-06-22T08:10:32;100758.41;;;23.30;78.97
35248;BME280;21380;52.194;20.520;2023-06-22T08:12:58;100764.53;;;23.30;78.49
35248;BME280;21380;52.194;20.520;2023-06-22T08:15:25;100759.28;;;23.30;78.66
35248;BME280;21380;52.194;20.520;2023-06-22T08:17:51;100761.06;;;23.30;78.50
35248;BME280;21380;52.194;20.520;2023-06-22T08:20:17;100761.91;;;23.30;78.37
35248;BME280;21380;52.194;20.520;2023-06-22T08:22:43;100774.22;;;23.30;78.14
35248;BME280;21380;52.194;20.520;2023-06-22T08:25:09;100774.22;;;23.30;78.19
35248;BME280;21380;52.194;20.520;2023-06-22T08:27:35;100763.69;;;23.30;77.93
35248;BME280;21380;52.194;20.520;2023-06-22T08:30:01;100766.31;;;23.30;77.97
35248;BME280;21380;52.194;20.520;2023-06-22T08:32:28;100778.56;;;23.31;78.10
35248;BME280;21380;52.194;20.520;2023-06-22T08:34:54;100768.94;;;23.30;77.91
35248;BME280;21380;52.194;20.520;2023-06-22T08:37:20;100782.09;;;23.30;77.83
35248;BME280;21380;52.194;20.520;2023-06-22T08:39:46;100779.47;;;23.30;77.60
35248;BME280;21380;52.194;20.520;2023-06-22T08:42:12;100792.63;;;23.30;77.74
35248;BME280;21380;52.194;20.520;2023-06-22T08:44:37;100788.25;;;23.29;77.16
35248;BME280;21380;52.194;20.520;2023-06-22T08:47:03;100792.63;;;23.30;77.48
35248;BME280;21380;52.194;20.520;2023-06-22T08:49:29;100796.13;;;23.30;77.24
35248;BME280;21380;52.194;20.520;2023-06-22T08:51:55;100795.28;;;23.30;77.18
35248;BME280;21380;52.194;20.520;2023-06-22T08:54:22;100792.63;;;23.30;77.04
35248;BME280;21380;52.194;20.520;2023-06-22T08:56:48;100787.38;;;23.30;76.79
35248;BME280;21380;52.194;20.520;2023-06-22T08:59:13;100787.38;;;23.30;76.89
35248;BME280;21380;52.194;20.520;2023-06-22T09:01:39;100786.47;;;23.29;76.72
35248;BME280;21380;52.194;20.520;2023-06-22T09:04:05;100765.50;;;23.17;76.56
35248;BME280;21380;52.194;20.520;2023-06-22T09:06:32;100792.63;;;23.30;76.64
35248;BME280;21380;52.194;20.520;2023-06-22T09:08:58;100783.84;;;23.29;76.41
35248;BME280;21380;52.194;20.520;2023-06-22T09:11:27;100785.63;;;23.29;76.30
35248;BME280;21380;52.194;20.520;2023-06-22T09:13:52;100783.84;;;23.29;76.25
35248;BME280;21380;52.194;20.520;2023-06-22T09:16:19;100784.72;;;23.28;75.93
35248;BME280;21380;52.194;20.520;2023-06-22T09:18:48;100783.88;;;23.28;75.98
35248;BME280;21380;52.194;20.520;2023-06-22T09:21:14;100786.47;;;23.29;75.95
35248;BME280;21380;52.194;20.520;2023-06-22T09:23:39;100782.09;;;23.28;75.97
35248;BME280;21380;52.194;20.520;2023-06-22T09:26:05;100790.00;;;23.28;75.64
35248;BME280;21380;52.194;20.520;2023-06-22T09:28:31;100787.34;;;23.28;75.87
35248;BME280;21380;52.194;20.520;2023-06-22T09:30:56;100785.63;;;23.29;75.82
35248;BME280;21380;52.194;20.520;2023-06-22T09:33:25;100790.88;;;23.29;75.46
35248;BME280;21380;52.194;20.520;2023-06-22T09:35:50;100787.34;;;23.28;75.72
35248;BME280;21380;52.194;20.520;2023-06-22T09:38:16;100790.88;;;23.29;75.46
35248;BME280;21380;52.194;20.520;2023-06-22T09:40:42;100781.22;;;23.29;75.73
35248;BME280;21380;52.194;20.520;2023-06-22T09:43:08;100782.09;;;23.28;75.61
35248;BME280;21380;52.194;20.520;2023-06-22T09:45:34;100780.34;;;23.29;75.28
35248;BME280;21380;52.194;20.520;2023-06-22T09:47:59;100788.25;;;23.29;75.51
35248;BME280;21380;52.194;20.520;2023-06-22T09:50:25;100784.75;;;23.30;75.40
35248;BME280;21380;52.194;20.520;2023-06-22T09:52:51;100778.59;;;23.29;75.19
35248;BME280;21380;52.194;20.520;2023-06-22T09:55:20;100784.75;;;23.30;75.24
35248;BME280;21380;52.194;20.520;2023-06-22T09:57:46;100784.75;;;23.30;75.12
35248;BME280;21380;52.194;20.520;2023-06-22T10:00:13;100776.84;;;23.30;75.21
35248;BME280;21380;52.194;20.520;2023-06-22T10:02:39;100781.22;;;23.29;75.13
35248;BME280;21380;52.194;20.520;2023-06-22T10:05:05;100784.75;;;23.30;75.17
35248;BME280;21380;52.194;20.520;2023-06-22T10:07:33;100781.22;;;23.29;74.80
35248;BME280;21380;52.194;20.520;2023-06-22T10:09:59;100775.06;;;23.30;75.10
35248;BME280;21380;52.194;20.520;2023-06-22T10:12:26;100782.97;;;23.30;74.85
35248;BME280;21380;52.194;20.520;2023-06-22T10:14:53;100777.72;;;23.30;74.74
35248;BME280;21380;52.194;20.520;2023-06-22T10:17:18;100773.31;;;23.29;74.91
35248;BME280;21380;52.194;20.520;2023-06-22T10:19:44;100768.06;;;23.29;74.79
35248;BME280;21380;52.194;20.520;2023-06-22T10:22:09;100769.81;;;23.30;74.82
35248;BME280;21380;52.194;20.520;2023-06-22T10:24:35;100767.19;;;23.30;74.51
35248;BME280;21380;52.194;20.520;2023-06-22T10:27:01;100776.84;;;23.30;74.51
35248;BME280;21380;52.194;20.520;2023-06-22T10:29:27;100768.03;;;23.31;74.56
35248;BME280;21380;52.194;20.520;2023-06-22T10:31:52;100775.06;;;23.30;74.48
35248;BME280;21380;52.194;20.520;2023-06-22T10:34:18;100769.81;;;23.30;74.28
35248;BME280;21380;52.194;20.520;2023-06-22T10:36:44;100769.81;;;23.30;74.35
35248;BME280;21380;52.194;20.520;2023-06-22T10:39:12;100767.19;;;23.30;74.36
35248;BME280;21380;52.194;20.520;2023-06-22T10:41:38;100753.16;;;23.30;74.29
35248;BME280;21380;52.194;20.520;2023-06-22T10:44:04;100760.13;;;23.31;74.26
35248;BME280;21380;52.194;20.520;2023-06-22T10:46:29;100765.41;;;23.31;74.19
35248;BME280;21380;52.194;20.520;2023-06-22T10:48:55;100765.41;;;23.31;73.92
35248;BME280;21380;52.194;20.520;2023-06-22T10:51:24;100754.03;;;23.30;74.13
35248;BME280;21380;52.194;20.520;2023-06-22T10:53:51;100744.34;;;23.31;74.07
35248;BME280;21380;52.194;20.520;2023-06-22T10:56:17;100750.50;;;23.31;73.90
35248;BME280;21380;52.194;20.520;2023-06-22T10:58:44;100747.88;;;23.31;73.94
35248;BME280;21380;52.194;20.520;2023-06-22T11:01:10;100752.25;;;23.31;73.84
35248;BME280;21380;52.194;20.520;2023-06-22T11:03:35;100753.13;;;23.31;74.04
35248;BME280;21380;52.194;20.520;2023-06-22T11:06:01;100751.38;;;23.30;73.82
35248;BME280;21380;52.194;20.520;2023-06-22T11:08:27;100745.25;;;23.31;73.97
35248;BME280;21380;52.194;20.520;2023-06-22T11:10:52;100739.97;;;23.31;73.50
35248;BME280;21380;52.194;20.520;2023-06-22T11:13:18;100742.59;;;23.31;73.79
35248;BME280;21380;52.194;20.520;2023-06-22T11:15:44;100739.09;;;23.31;73.54
35248;BME280;21380;52.194;20.520;2023-06-22T11:18:10;100740.84;;;23.32;73.50
35248;BME280;21380;52.194;20.520;2023-06-22T11:20:35;100739.97;;;23.31;73.43
35248;BME280;21380;52.194;20.520;2023-06-22T11:23:04;100732.94;;;23.32;73.44
35248;BME280;21380;52.194;20.520;2023-06-22T11:25:31;100735.56;;;23.32;73.35
35248;BME280;21380;52.194;20.520;2023-06-22T11:28:02;100741.72;;;23.33;73.35
35248;BME280;21380;52.194;20.520;2023-06-22T11:30:28;100741.72;;;23.33;73.57
35248;BME280;21380;52.194;20.520;2023-06-22T11:32:53;100749.63;;;23.33;73.45
35248;BME280;21380;52.194;20.520;2023-06-22T11:35:19;100742.59;;;23.33;73.39
35248;BME280;21380;52.194;20.520;2023-06-22T11:37:45;100744.34;;;23.34;73.69
35248;BME280;21380;52.194;20.520;2023-06-22T11:40:11;100751.34;;;23.34;73.38
35248;BME280;21380;52.194;20.520;2023-06-22T11:42:37;100744.34;;;23.34;73.51
35248;BME280;21380;52.194;20.520;2023-06-22T11:45:04;100741.72;;;23.34;73.46
35248;BME280;21380;52.194;20.520;2023-06-22T11:47:30;100742.56;;;23.35;73.41
35248;BME280;21380;52.194;20.520;2023-06-22T11:49:56;100739.94;;;23.35;73.13
35248;BME280;21380;52.194;20.520;2023-06-22T11:52:21;100744.34;;;23.34;73.25
35248;BME280;21380;52.194;20.520;2023-06-22T11:54:47;100739.09;;;23.34;73.10
35248;BME280;21380;52.194;20.520;2023-06-22T11:57:13;100723.28;;;23.34;73.16
35248;BME280;21380;52.194;20.520;2023-06-22T11:59:38;100724.16;;;23.35;73.25
35248;BME280;21380;52.194;20.520;2023-06-22T12:02:04;100723.28;;;23.34;73.26
35248;BME280;21380;52.194;20.520;2023-06-22T12:04:32;100716.25;;;23.35;73.30
35248;BME280;21380;52.194;20.520;2023-06-22T12:06:58;100716.25;;;23.35;73.03
35248;BME280;21380;52.194;20.520;2023-06-22T12:09:24;100709.25;;;23.35;72.92
35248;BME280;21380;52.194;20.520;2023-06-22T12:11:50;100712.75;;;23.34;73.15
35248;BME280;21380;52.194;20.520;2023-06-22T12:14:15;100710.97;;;23.35;72.87
35248;BME280;21380;52.194;20.520;2023-06-22T12:16:41;100712.75;;;23.34;72.96
35248;BME280;21380;52.194;20.520;2023-06-22T12:19:09;100713.63;;;23.35;73.09
35248;BME280;21380;52.194;20.520;2023-06-22T12:21:36;100704.88;;;23.34;73.08
35248;BME280;21380;52.194;20.520;2023-06-22T12:24:02;100713.63;;;23.35;73.05
35248;BME280;21380;52.194;20.520;2023-06-22T12:26:28;100710.09;;;23.36;72.87
35248;BME280;21380;52.194;20.520;2023-06-22T12:28:53;100709.25;;;23.35;73.07
35248;BME280;21380;52.194;20.520;2023-06-22T12:31:19;100701.34;;;23.35;72.89
35248;BME280;21380;52.194;20.520;2023-06-22T12:33:45;100715.38;;;23.36;72.61
35248;BME280;21380;52.194;20.520;2023-06-22T12:36:11;100714.50;;;23.35;72.63
35248;BME280;21380;52.194;20.520;2023-06-22T12:38:36;100709.22;;;23.37;72.54
35248;BME280;21380;52.194;20.520;2023-06-22T12:41:02;100714.50;;;23.35;72.79
35248;BME280;21380;52.194;20.520;2023-06-22T12:43:28;100718.91;;;23.36;72.63
35248;BME280;21380;52.194;20.520;2023-06-22T12:45:54;100712.75;;;23.36;72.66
35248;BME280;21380;52.194;20.520;2023-06-22T12:48:21;100716.25;;;23.36;72.41
35248;BME280;21380;52.194;20.520;2023-06-22T12:50:47;100723.25;;;23.36;72.39
35248;BME280;21380;52.194;20.520;2023-06-22T12:53:13;100714.50;;;23.37;72.35
35248;BME280;21380;52.194;20.520;2023-06-22T12:55:41;100713.63;;;23.36;72.66